Time;durP1;ratioP1;P1;durP2;ratioP2;P2;SDS_P1;SDS_P2;PMS_P1;PMS_P2;Temp;Humidity;BMP_temperature;BMP_pressure;BME280_temperature;BME280_humidity;BME280_pressure;Samples;Min_cycle;Max_cycle;Signal;HPM_P1;HPM_P2
2023/09/19 00:00:43;;;;;;;1.48;0.60;;;21.40;99.90;;;;;;5057864;28;20079;-39
2023/09/19 00:03:09;;;;;;;0.68;0.40;;;21.40;99.90;;;;;;5057606;28;20390;-40
2023/09/19 00:05:38;;;;;;;1.77;0.70;;;21.40;99.90;;;;;;5057492;28;20188;-39
2023/09/19 00:08:04;;;;;;;2.53;0.60;;;21.40;99.90;;;;;;5057525;28;20087;-39
2023/09/19 00:10:30;;;;;;;1.10;0.40;;;21.40;99.90;;;;;;5057281;28;20112;-39
2023/09/19 00:13:01;;;;;;;0.88;0.47;;;21.40;99.90;;;;;;5057817;28;20108;-41
2023/09/19 00:15:30;;;;;;;1.48;0.60;;;21.40;99.90;;;;;;5057515;28;20070;-41
2023/09/19 00:17:56;;;;;;;3.33;0.73;;;21.40;99.90;;;;;;5057670;28;20028;-41
2023/09/19 00:20:23;;;;;;;1.20;0.40;;;21.50;99.90;;;;;;5057506;28;20021;-40
2023/09/19 00:22:51;;;;;;;1.15;0.50;;;21.40;99.90;;;;;;5039644;28;20029;-40
2023/09/19 00:25:17;;;;;;;0.88;0.50;;;21.40;99.90;;;;;;5056977;28;20025;-40
2023/09/19 00:27:44;;;;;;;0.85;0.40;;;21.40;99.90;;;;;;5057533;28;20036;-40
2023/09/19 00:30:14;;;;;;;1.83;0.63;;;21.40;99.90;;;;;;5057378;28;20021;-39
2023/09/19 00:32:40;;;;;;;0.93;0.50;;;21.40;99.90;;;;;;5057642;28;20043;-39
2023/09/19 00:35:08;;;;;;;1.25;0.50;;;21.40;99.90;;;;;;5057102;28;20028;-39
2023/09/19 00:37:34;;;;;;;0.80;0.50;;;21.40;99.90;;;;;;5057063;28;20068;-39
2023/09/19 00:40:00;;;;;;;0.77;0.52;;;21.40;99.90;;;;;;5057019;28;20037;-39
2023/09/19 00:42:25;;;;;;;2.40;0.55;;;21.40;99.90;;;;;;5057265;28;20394;-39
2023/09/19 00:44:52;;;;;;;2.10;0.43;;;21.40;99.90;;;;;;5057075;28;20056;-39
2023/09/19 00:47:18;;;;;;;1.30;0.70;;;21.40;99.90;;;;;;5053268;28;20021;-39
2023/09/19 00:49:49;;;;;;;1.95;0.68;;;21.40;99.90;;;;;;5053940;28;20021;-39
2023/09/19 00:52:18;;;;;;;0.93;0.50;;;21.40;99.90;;;;;;5053697;28;20071;-39
2023/09/19 00:54:46;;;;;;;0.52;0.47;;;21.40;99.90;;;;;;5053700;28;20025;-40
2023/09/19 00:57:11;;;;;;;1.02;0.50;;;21.40;99.90;;;;;;5053682;28;20028;-39
2023/09/19 00:59:37;;;;;;;2.08;0.70;;;21.40;99.90;;;;;;5053851;28;20021;-39
2023/09/19 01:02:03;;;;;;;0.57;0.50;;;21.30;99.90;;;;;;5053701;28;20070;-39
2023/09/19 01:04:30;;;;;;;2.13;0.50;;;21.40;99.90;;;;;;5053756;28;20103;-39
2023/09/19 01:06:57;;;;;;;4.03;0.70;;;21.30;99.90;;;;;;5053526;28;20507;-40
2023/09/19 01:09:23;;;;;;;1.17;0.50;;;21.40;99.90;;;;;;5053523;28;20028;-39
2023/09/19 01:11:53;;;;;;;1.20;0.50;;;21.40;99.90;;;;;;5053580;28;20470;-39
2023/09/19 01:14:34;;;;;;;1.13;0.43;;;21.30;99.90;;;;;;5053572;28;20078;-39
2023/09/19 01:17:18;;;;;;;2.25;0.50;;;21.30;99.90;;;;;;5053509;28;20385;-39
2023/09/19 01:19:56;;;;;;;;;;;21.40;99.90;;;;;;5053812;28;20025;-40
2023/09/19 01:22:33;;;;;;;1.85;0.50;;;21.30;99.90;;;;;;5053962;28;19909;-39
2023/09/19 01:25:35;;;;;;;0.68;0.40;;;21.40;99.90;;;;;;5053533;28;20104;-39
2023/09/19 01:28:07;;;;;;;1.40;0.60;;;21.30;99.90;;;;;;5053567;28;20072;-39
2023/09/19 01:30:38;;;;;;;1.75;0.50;;;21.40;99.90;;;;;;5053160;28;20059;-40
2023/09/19 01:33:06;;;;;;;1.25;0.60;;;21.30;99.90;;;;;;5053529;28;20017;-39
2023/09/19 01:35:34;;;;;;;1.00;0.40;;;21.40;99.90;;;;;;5053112;28;20025;-40
2023/09/19 01:37:59;;;;;;;0.80;0.35;;;21.30;99.90;;;;;;5053088;28;20021;-39
2023/09/19 01:40:25;;;;;;;0.88;0.60;;;21.30;99.90;;;;;;5052803;28;20144;-39
2023/09/19 01:43:17;;;;;;;1.05;0.60;;;21.30;99.90;;;;;;5052980;28;20055;-39
2023/09/19 01:46:01;;;;;;;1.17;0.70;;;21.30;99.90;;;;;;5052989;28;20029;-40
2023/09/19 01:48:58;;;;;;;2.50;0.57;;;21.40;99.90;;;;;;5052852;28;20021;-39
2023/09/19 01:51:33;;;;;;;0.90;0.40;;;21.30;99.90;;;;;;5052849;28;20049;-39
2023/09/19 01:54:10;;;;;;;1.13;0.55;;;21.30;99.90;;;;;;5052764;28;20029;-39
2023/09/19 01:56:49;;;;;;;0.63;0.40;;;21.30;99.90;;;;;;5052556;28;20021;-40
2023/09/19 01:59:22;;;;;;;0.93;0.68;;;21.30;99.90;;;;;;5052478;28;20025;-39
2023/09/19 02:01:49;;;;;;;2.10;0.50;;;21.30;99.90;;;;;;5052767;28;20021;-40
2023/09/19 02:04:16;;;;;;;1.48;0.50;;;21.30;99.90;;;;;;5052630;28;20308;-39
2023/09/19 02:06:42;;;;;;;1.63;0.60;;;21.30;99.90;;;;;;5052461;28;20040;-39
2023/09/19 02:09:08;;;;;;;0.95;0.40;;;21.30;99.90;;;;;;5052910;28;20029;-39
2023/09/19 02:11:35;;;;;;;0.63;0.40;;;21.30;99.90;;;;;;5052268;28;20079;-39
2023/09/19 02:14:01;;;;;;;1.38;0.55;;;21.30;99.90;;;;;;5052309;28;20017;-39
2023/09/19 02:16:27;;;;;;;0.98;0.50;;;21.30;99.90;;;;;;5052122;28;20017;-39
2023/09/19 02:18:53;;;;;;;0.50;0.47;;;21.30;99.90;;;;;;5052326;28;20025;-39
2023/09/19 02:21:19;;;;;;;0.88;0.40;;;21.30;99.90;;;;;;5052281;28;20096;-39
2023/09/19 02:23:47;;;;;;;1.85;0.40;;;21.30;99.90;;;;;;5052201;28;20025;-39
2023/09/19 02:26:13;;;;;;;0.85;0.40;;;21.30;99.90;;;;;;5051952;28;20116;-39
2023/09/19 02:28:40;;;;;;;1.02;0.50;;;21.30;99.90;;;;;;5052337;28;20110;-39
2023/09/19 02:31:05;;;;;;;1.48;0.50;;;21.30;99.90;;;;;;5052014;28;20032;-39
2023/09/19 02:33:32;;;;;;;1.05;0.47;;;21.30;99.90;;;;;;5052127;28;20501;-39
2023/09/19 02:35:58;;;;;;;0.52;0.40;;;21.30;99.90;;;;;;5051768;28;20025;-39
2023/09/19 02:38:27;;;;;;;0.65;0.32;;;21.20;99.90;;;;;;5051793;28;20382;-39
2023/09/19 02:40:55;;;;;;;1.95;0.40;;;21.20;99.90;;;;;;5051713;28;20094;-39
2023/09/19 02:43:21;;;;;;;0.77;0.40;;;21.20;99.90;;;;;;5051856;28;20103;-39
2023/09/19 02:45:49;;;;;;;0.50;0.30;;;21.20;99.90;;;;;;5051642;28;20115;-39
2023/09/19 02:48:16;;;;;;;0.75;0.50;;;21.20;99.90;;;;;;5052029;28;20029;-39
2023/09/19 02:50:42;;;;;;;1.77;0.40;;;21.30;99.90;;;;;;5051538;28;20036;-39
2023/09/19 02:53:10;;;;;;;0.75;0.50;;;21.30;99.90;;;;;;5051632;28;20447;-39
2023/09/19 02:55:38;;;;;;;0.68;0.40;;;21.30;99.90;;;;;;5051482;28;20028;-39
2023/09/19 02:58:05;;;;;;;1.13;0.40;;;21.20;99.90;;;;;;5051581;28;20032;-39
2023/09/19 03:00:30;;;;;;;0.85;0.50;;;21.20;99.90;;;;;;5051508;28;20099;-39
2023/09/19 03:02:57;;;;;;;0.55;0.30;;;21.30;99.90;;;;;;5051552;28;20494;-39
2023/09/19 03:05:23;;;;;;;0.43;0.43;;;21.30;99.90;;;;;;5051232;28;20032;-39
2023/09/19 03:07:52;;;;;;;2.50;0.55;;;21.20;99.90;;;;;;5051252;28;20052;-39
2023/09/19 03:10:21;;;;;;;0.95;0.40;;;21.30;99.90;;;;;;5050820;28;20365;-40
2023/09/19 03:12:47;;;;;;;0.82;0.50;;;21.30;99.90;;;;;;5051345;28;20021;-39
2023/09/19 03:15:15;;;;;;;0.73;0.47;;;21.30;99.90;;;;;;5051416;28;20029;-39
2023/09/19 03:17:50;;;;;;;0.80;0.40;;;21.20;99.90;;;;;;5051222;28;20024;-39
2023/09/19 03:20:18;;;;;;;0.95;0.40;;;21.20;99.90;;;;;;5051184;28;20027;-39
2023/09/19 03:22:45;;;;;;;1.50;0.52;;;21.20;99.90;;;;;;5051295;28;20025;-39
2023/09/19 03:25:11;;;;;;;0.60;0.50;;;21.30;99.90;;;;;;5051208;28;20055;-39
2023/09/19 03:27:38;;;;;;;0.70;0.60;;;21.20;99.90;;;;;;5051187;28;20025;-39
2023/09/19 03:30:08;;;;;;;0.95;0.40;;;21.20;99.90;;;;;;5051498;28;20363;-39
2023/09/19 03:32:37;;;;;;;1.13;0.40;;;21.20;99.90;;;;;;5051186;28;20033;-39
2023/09/19 03:35:06;;;;;;;3.00;0.60;;;21.20;99.90;;;;;;5051026;28;20051;-39
2023/09/19 03:37:35;;;;;;;0.82;0.38;;;21.20;99.90;;;;;;5051137;28;20017;-39
2023/09/19 03:40:04;;;;;;;1.45;0.50;;;21.20;99.90;;;;;;5062042;22;20090;-41
2023/09/19 03:42:30;;;;;;;1.00;0.50;;;21.20;99.90;;;;;;5013125;28;20041;-38
2023/09/19 03:44:56;;;;;;;0.65;0.50;;;21.20;99.90;;;;;;5031067;28;20029;-43
2023/09/19 03:47:22;;;;;;;1.50;0.45;;;21.20;99.90;;;;;;5031039;28;20112;-41
2023/09/19 03:49:48;;;;;;;1.42;0.60;;;21.20;99.90;;;;;;5031088;28;20057;-39
2023/09/19 03:52:15;;;;;;;1.35;0.55;;;21.20;99.90;;;;;;5031366;28;20057;-44
2023/09/19 03:54:41;;;;;;;1.77;0.50;;;21.20;99.90;;;;;;5030973;28;20105;-43
2023/09/19 03:57:07;;;;;;;2.42;0.38;;;21.20;99.90;;;;;;5031103;28;20125;-43
2023/09/19 03:59:33;;;;;;;0.93;0.40;;;21.20;99.90;;;;;;5031003;28;20031;-40
2023/09/19 04:01:59;;;;;;;0.52;0.30;;;21.20;99.90;;;;;;5031091;28;20033;-41
2023/09/19 04:04:25;;;;;;;0.70;0.50;;;21.20;99.90;;;;;;5030947;28;20037;-41
2023/09/19 04:06:54;;;;;;;1.55;0.68;;;21.20;99.90;;;;;;5013238;28;20033;-38
2023/09/19 04:09:19;;;;;;;1.30;0.65;;;21.20;99.90;;;;;;5030971;28;20056;-45
2023/09/19 04:11:45;;;;;;;2.42;0.60;;;21.20;99.90;;;;;;5030994;28;20022;-41
2023/09/19 04:14:10;;;;;;;1.63;0.60;;;21.20;99.90;;;;;;5030884;28;20033;-41
2023/09/19 04:16:36;;;;;;;0.85;0.50;;;21.10;99.90;;;;;;5030762;28;20042;-41
2023/09/19 04:19:03;;;;;;;0.93;0.60;;;21.20;99.90;;;;;;5030828;28;20488;-44
2023/09/19 04:21:29;;;;;;;1.27;0.60;;;21.20;99.90;;;;;;5031823;28;20032;-45
2023/09/19 04:23:54;;;;;;;1.20;0.50;;;21.20;99.90;;;;;;5034648;28;20386;-47
2023/09/19 04:26:21;;;;;;;1.58;0.50;;;21.10;99.90;;;;;;5034446;28;20025;-40
2023/09/19 04:28:47;;;;;;;1.42;0.80;;;21.20;99.90;;;;;;5034474;28;20026;-42
2023/09/19 04:31:14;;;;;;;0.90;0.63;;;21.10;99.90;;;;;;5034341;28;20552;-43
2023/09/19 04:33:39;;;;;;;1.00;0.60;;;21.20;99.90;;;;;;5034412;28;20022;-37
2023/09/19 04:36:07;;;;;;;1.00;0.40;;;21.20;99.90;;;;;;5034190;28;20032;-40
2023/09/19 04:38:33;;;;;;;0.65;0.50;;;21.10;99.90;;;;;;5034342;28;20556;-40
2023/09/19 04:40:59;;;;;;;1.55;0.43;;;21.10;99.90;;;;;;5034127;28;20045;-41
2023/09/19 04:43:25;;;;;;;1.33;0.50;;;21.20;99.90;;;;;;5034130;28;20029;-40
2023/09/19 04:45:51;;;;;;;0.90;0.57;;;21.20;99.90;;;;;;5032779;28;20037;-42
2023/09/19 04:48:16;;;;;;;1.02;0.50;;;21.10;99.90;;;;;;5034116;28;20026;-43
2023/09/19 04:50:42;;;;;;;1.23;0.50;;;21.10;99.90;;;;;;5033944;28;20036;-42
2023/09/19 04:53:08;;;;;;;0.95;0.50;;;21.10;99.90;;;;;;5034141;28;20021;-43
2023/09/19 04:55:34;;;;;;;2.50;0.60;;;21.10;99.90;;;;;;5033864;28;20025;-43
2023/09/19 04:57:59;;;;;;;1.10;0.55;;;21.10;99.90;;;;;;5033925;28;20040;-37
2023/09/19 05:00:27;;;;;;;2.08;0.57;;;21.10;99.90;;;;;;5033874;28;20032;-39
2023/09/19 05:02:58;;;;;;;1.38;0.60;;;21.10;99.90;;;;;;5033851;28;20021;-44
2023/09/19 05:05:26;;;;;;;0.70;0.40;;;21.10;99.90;;;;;;5033818;28;20029;-45
2023/09/19 05:07:53;;;;;;;1.15;0.57;;;21.10;99.90;;;;;;5033860;28;20119;-39
2023/09/19 05:10:19;;;;;;;0.50;0.43;;;21.10;99.90;;;;;;5033996;28;20033;-37
2023/09/19 05:12:47;;;;;;;1.10;0.70;;;21.10;99.90;;;;;;5033803;28;20021;-40
2023/09/19 05:15:17;;;;;;;1.17;0.50;;;21.10;99.90;;;;;;5034155;28;20083;-43
2023/09/19 05:17:49;;;;;;;3.13;0.70;;;21.10;99.90;;;;;;5033631;28;20021;-37
2023/09/19 05:20:24;;;;;;;0.77;0.50;;;21.10;99.90;;;;;;5033678;28;20029;-40
2023/09/19 05:22:50;;;;;;;0.88;0.50;;;21.10;99.90;;;;;;5033579;28;20041;-40
2023/09/19 05:25:18;;;;;;;1.23;0.60;;;21.10;99.90;;;;;;5033267;28;20045;-41
2023/09/19 05:27:44;;;;;;;1.20;0.70;;;21.10;99.90;;;;;;5033449;28;20018;-41
2023/09/19 05:30:10;;;;;;;1.70;0.88;;;21.10;99.90;;;;;;5033349;28;20018;-40
2023/09/19 05:32:36;;;;;;;0.93;0.55;;;21.10;99.90;;;;;;5032828;28;20101;-44
2023/09/19 05:35:02;;;;;;;1.65;0.68;;;21.10;99.90;;;;;;5033210;28;20112;-39
2023/09/19 05:37:29;;;;;;;1.02;0.50;;;21.10;99.90;;;;;;5033203;28;20386;-39
2023/09/19 05:39:55;;;;;;;1.08;0.52;;;21.10;99.90;;;;;;5033275;28;20064;-40
2023/09/19 05:42:20;;;;;;;1.13;0.50;;;21.10;99.90;;;;;;5033192;28;20033;-40
2023/09/19 05:44:46;;;;;;;1.13;0.55;;;21.10;99.90;;;;;;5033086;28;20033;-39
2023/09/19 05:47:12;;;;;;;1.90;0.60;;;21.10;99.90;;;;;;5033016;28;20033;-40
2023/09/19 05:49:38;;;;;;;1.30;0.50;;;21.10;99.90;;;;;;5033049;28;20033;-40
2023/09/19 05:52:08;;;;;;;2.33;0.60;;;21.10;99.90;;;;;;5032995;28;20079;-39
2023/09/19 05:54:34;;;;;;;1.77;0.50;;;21.10;99.90;;;;;;5032855;28;20027;-40
2023/09/19 05:57:01;;;;;;;1.33;0.68;;;21.10;99.90;;;;;;5032753;28;20029;-41
2023/09/19 05:59:27;;;;;;;0.80;0.40;;;21.10;99.90;;;;;;5032820;28;20028;-40
2023/09/19 06:01:52;;;;;;;1.10;0.47;;;21.10;99.90;;;;;;5032740;28;20017;-40
2023/09/19 06:04:19;;;;;;;1.20;0.63;;;21.10;99.90;;;;;;5032745;28;20510;-40
2023/09/19 06:06:45;;;;;;;1.23;0.52;;;21.10;99.90;;;;;;5032606;28;20029;-40
2023/09/19 06:09:10;;;;;;;0.80;0.40;;;21.10;99.90;;;;;;5032682;28;20036;-41
2023/09/19 06:11:37;;;;;;;1.08;0.50;;;21.10;99.90;;;;;;5032754;28;20041;-41
2023/09/19 06:14:03;;;;;;;0.75;0.57;;;21.10;99.90;;;;;;5014802;28;20025;-43
2023/09/19 06:16:32;;;;;;;1.15;0.60;;;21.10;99.90;;;;;;5032351;28;20033;-43
2023/09/19 06:18:59;;;;;;;1.23;0.45;;;21.10;99.90;;;;;;5032552;28;20479;-39
2023/09/19 06:21:26;;;;;;;1.85;0.52;;;21.10;99.90;;;;;;5032323;28;20024;-41
2023/09/19 06:23:53;;;;;;;0.88;0.50;;;21.10;99.90;;;;;;5032431;28;20022;-41
2023/09/19 06:26:19;;;;;;;0.85;0.50;;;21.00;99.90;;;;;;5030835;28;20030;-43
2023/09/19 06:28:44;;;;;;;1.58;0.52;;;21.10;99.90;;;;;;5032244;28;20025;-39
2023/09/19 06:31:10;;;;;;;2.63;0.57;;;21.10;99.90;;;;;;5032109;28;20120;-39
2023/09/19 06:33:39;;;;;;;1.27;0.50;;;21.00;99.90;;;;;;5032204;28;20048;-43
2023/09/19 06:36:08;;;;;;;0.73;0.40;;;21.10;99.90;;;;;;5031859;28;20032;-39
2023/09/19 06:38:36;;;;;;;2.50;0.55;;;21.10;99.90;;;;;;5032265;28;20036;-42
2023/09/19 06:41:04;;;;;;;1.83;0.80;;;21.10;99.90;;;;;;5031967;28;20095;-41
2023/09/19 06:43:31;;;;;;;2.30;0.40;;;21.10;99.90;;;;;;5031687;28;20113;-37
2023/09/19 06:45:57;;;;;;;0.77;0.40;;;21.00;99.90;;;;;;5031356;28;20021;-37
2023/09/19 06:48:24;;;;;;;0.95;0.70;;;21.10;99.90;;;;;;5031908;28;20359;-40
2023/09/19 06:50:50;;;;;;;0.73;0.60;;;21.10;99.90;;;;;;5031756;28;20088;-41
2023/09/19 06:53:17;;;;;;;0.75;0.50;;;21.00;99.90;;;;;;5031859;28;20487;-41
2023/09/19 06:55:43;;;;;;;0.50;0.30;;;21.10;99.90;;;;;;5031683;28;20025;-38
2023/09/19 06:58:10;;;;;;;1.73;0.55;;;21.10;99.90;;;;;;5031787;28;20021;-43
2023/09/19 07:00:37;;;;;;;2.00;0.40;;;21.10;99.90;;;;;;5031622;28;20056;-40
2023/09/19 07:03:03;;;;;;;1.30;0.50;;;21.10;99.90;;;;;;5031562;28;20525;-41
2023/09/19 07:05:31;;;;;;;0.90;0.50;;;21.10;99.90;;;;;;5031441;28;20041;-41
2023/09/19 07:08:00;;;;;;;0.90;0.40;;;21.10;99.90;;;;;;5031570;28;20479;-37
2023/09/19 07:10:27;;;;;;;1.52;0.38;;;21.10;99.90;;;;;;5031450;28;20036;-41
2023/09/19 07:12:58;;;;;;;1.13;0.57;;;21.10;99.90;;;;;;5031551;28;20029;-40
2023/09/19 07:15:25;;;;;;;1.98;0.45;;;21.10;99.90;;;;;;5031284;28;20036;-43
2023/09/19 07:17:55;;;;;;;3.75;0.50;;;21.10;99.90;;;;;;5031411;28;20060;-40
2023/09/19 07:20:22;;;;;;;0.77;0.28;;;21.10;99.90;;;;;;5031440;28;20496;-40
2023/09/19 07:22:50;;;;;;;0.43;0.30;;;21.10;99.90;;;;;;5031789;28;20101;-37
2023/09/19 07:25:16;;;;;;;1.85;0.50;;;21.10;99.90;;;;;;5031260;28;20014;-42
2023/09/19 07:27:42;;;;;;;0.93;0.60;;;21.10;99.90;;;;;;5031467;28;20079;-40
2023/09/19 07:30:09;;;;;;;0.95;0.57;;;21.10;99.90;;;;;;5031066;28;20098;-43
2023/09/19 07:32:36;;;;;;;0.65;0.40;;;21.10;99.90;;;;;;5031346;28;20579;-43
2023/09/19 07:35:03;;;;;;;0.68;0.50;;;21.10;99.90;;;;;;5031213;28;20029;-40
2023/09/19 07:37:31;;;;;;;0.70;0.50;;;21.10;99.90;;;;;;5031216;28;20029;-42
2023/09/19 07:39:56;;;;;;;1.48;0.50;;;21.10;99.90;;;;;;5031095;28;20026;-40
2023/09/19 07:42:22;;;;;;;0.52;0.50;;;21.10;99.90;;;;;;5031233;28;20059;-41
2023/09/19 07:44:50;;;;;;;0.80;0.50;;;21.10;99.90;;;;;;5030929;28;20029;-42
2023/09/19 07:47:16;;;;;;;0.80;0.50;;;21.20;99.90;;;;;;5031132;28;20029;-37
2023/09/19 07:49:42;;;;;;;1.38;0.50;;;21.10;99.90;;;;;;5031110;28;20030;-43
2023/09/19 07:52:09;;;;;;;1.23;0.60;;;21.10;99.90;;;;;;5031199;28;20371;-43
2023/09/19 07:54:35;;;;;;;0.85;0.30;;;21.10;99.90;;;;;;5031098;28;20018;-38
2023/09/19 07:57:02;;;;;;;0.70;0.40;;;21.20;99.90;;;;;;5034691;28;20018;-44
2023/09/19 07:59:27;;;;;;;0.50;0.40;;;21.10;99.90;;;;;;5034978;28;20023;-43
2023/09/19 08:01:53;;;;;;;0.68;0.45;;;21.20;99.90;;;;;;5035127;28;20029;-37
2023/09/19 08:04:19;;;;;;;0.40;0.30;;;21.10;99.90;;;;;;5035009;28;20471;-41
2023/09/19 08:06:45;;;;;;;1.08;0.50;;;21.20;99.90;;;;;;5034886;28;20048;-41
2023/09/19 08:09:12;;;;;;;1.33;0.40;;;21.20;99.90;;;;;;5034866;28;20029;-45
2023/09/19 08:11:39;;;;;;;0.82;0.50;;;21.20;99.90;;;;;;5034742;28;20033;-40
2023/09/19 08:14:05;;;;;;;0.63;0.40;;;21.20;99.90;;;;;;5034601;28;20037;-42
2023/09/19 08:16:31;;;;;;;0.55;0.35;;;21.20;99.90;;;;;;5034687;28;20029;-43
2023/09/19 08:18:57;;;;;;;0.80;0.50;;;21.20;99.90;;;;;;5034913;28;20029;-42
2023/09/19 08:21:23;;;;;;;0.60;0.40;;;21.20;99.90;;;;;;5034677;28;20462;-46
2023/09/19 08:23:50;;;;;;;0.95;0.50;;;21.20;99.90;;;;;;5034675;28;20048;-42
2023/09/19 08:26:15;;;;;;;1.38;0.60;;;21.30;99.90;;;;;;5034502;28;20087;-42
2023/09/19 08:28:41;;;;;;;1.10;0.50;;;21.20;99.90;;;;;;5034655;28;20049;-41
2023/09/19 08:31:08;;;;;;;1.17;0.50;;;21.20;99.90;;;;;;5034591;28;20021;-41
2023/09/19 08:33:35;;;;;;;0.90;0.50;;;21.20;99.90;;;;;;5034648;28;20393;-44
2023/09/19 08:36:04;;;;;;;0.60;0.40;;;21.20;99.90;;;;;;5034206;28;20029;-40
2023/09/19 08:38:32;;;;;;;0.90;0.57;;;21.30;99.90;;;;;;5034381;28;20030;-38
2023/09/19 08:41:02;;;;;;;0.70;0.32;;;21.20;99.90;;;;;;5033999;28;20529;-37
2023/09/19 08:43:27;;;;;;;0.90;0.40;;;21.20;99.90;;;;;;5034595;28;20117;-46
2023/09/19 08:46:07;;;;;;;0.50;0.30;;;21.20;99.90;;;;;;5034191;28;20104;-42
2023/09/19 08:48:34;;;;;;;0.40;0.30;;;21.20;99.90;;;;;;5034830;28;20025;-43
2023/09/19 08:51:15;;;;;;;0.43;0.32;;;21.20;99.90;;;;;;5034151;28;20025;-38
2023/09/19 08:54:03;;;;;;;0.85;0.28;;;21.30;99.90;;;;;;5034057;28;20028;-43
2023/09/19 08:56:29;;;;;;;0.80;0.38;;;21.30;99.90;;;;;;5034323;28;20414;-40
2023/09/19 08:59:02;;;;;;;0.70;0.57;;;21.30;99.90;;;;;;5033843;28;20029;-44
2023/09/19 09:01:28;;;;;;;0.70;0.40;;;21.30;99.90;;;;;;5034007;28;20062;-40
2023/09/19 09:03:56;;;;;;;0.98;0.47;;;21.30;99.90;;;;;;5033929;28;20443;-42
2023/09/19 09:06:23;;;;;;;1.08;0.60;;;21.30;99.90;;;;;;5034033;28;20029;-38
2023/09/19 09:08:52;;;;;;;0.63;0.50;;;21.30;99.90;;;;;;5034459;28;20031;-39
2023/09/19 09:11:18;;;;;;;0.57;0.45;;;21.30;99.90;;;;;;5034338;28;20037;-41
2023/09/19 09:13:47;;;;;;;1.33;0.60;;;21.30;99.90;;;;;;5033759;28;20502;-41
2023/09/19 09:16:17;;;;;;;0.90;0.50;;;21.30;99.90;;;;;;5033811;28;20322;-39
2023/09/19 09:18:44;;;;;;;1.20;0.65;;;21.30;99.90;;;;;;5033772;28;20028;-40
2023/09/19 09:21:10;;;;;;;1.00;0.50;;;21.30;99.90;;;;;;5033595;28;20021;-40
2023/09/19 09:23:35;;;;;;;0.60;0.50;;;21.30;99.90;;;;;;5033697;28;20447;-41
2023/09/19 09:26:06;;;;;;;0.90;0.40;;;21.30;99.90;;;;;;5033360;28;20053;-41
2023/09/19 09:28:35;;;;;;;1.48;0.70;;;21.30;99.90;;;;;;5033485;28;20017;-40
2023/09/19 09:31:04;;;;;;;0.70;0.50;;;21.30;99.90;;;;;;5033199;28;20026;-39
2023/09/19 09:33:30;;;;;;;0.82;0.60;;;21.40;99.90;;;;;;5033405;28;20486;-40
2023/09/19 09:36:00;;;;;;;1.55;0.68;;;21.40;99.90;;;;;;5033209;28;20021;-39
2023/09/19 09:38:28;;;;;;;0.95;0.52;;;21.40;99.90;;;;;;5033350;28;20018;-40
2023/09/19 09:41:06;;;;;;;1.00;0.60;;;21.40;99.90;;;;;;5033681;28;20030;-37
2023/09/19 09:43:40;;;;;;;0.85;0.47;;;21.40;99.90;;;;;;5033146;28;20057;-41
2023/09/19 09:46:50;;;;;;;2.63;0.55;;;21.40;99.90;;;;;;5033074;28;20063;-41
2023/09/19 09:49:18;;;;;;;1.30;0.60;;;21.40;99.90;;;;;;5032921;28;20030;-37
2023/09/19 09:52:00;;;;;;;0.88;0.50;;;21.40;99.90;;;;;;5032471;28;20076;-40
2023/09/19 09:54:33;;;;;;;1.45;0.60;;;21.40;99.90;;;;;;5032911;28;20092;-40
2023/09/19 09:57:23;;;;;;;1.23;0.60;;;21.40;99.90;;;;;;5032985;28;20021;-39
2023/09/19 09:59:55;;;;;;;0.70;0.60;;;21.50;99.90;;;;;;5032881;28;20067;-38
2023/09/19 10:02:29;;;;;;;1.10;0.70;;;21.50;99.90;;;;;;5032734;28;20087;-40
2023/09/19 10:05:14;;;;;;;0.75;0.40;;;21.50;99.90;;;;;;5032834;28;20033;-40
2023/09/19 10:07:42;;;;;;;1.38;0.60;;;21.50;99.90;;;;;;5032811;28;20025;-41
2023/09/19 10:10:28;;;;;;;1.38;0.60;;;21.50;99.90;;;;;;5032753;28;20076;-39
2023/09/19 10:13:02;;;;;;;1.90;0.50;;;21.50;99.90;;;;;;5032666;28;20122;-41
2023/09/19 10:15:31;;;;;;;;;;;21.60;99.90;;;;;;5032923;28;20475;-40
2023/09/19 10:18:01;;;;;;;1.15;0.68;;;21.60;99.90;;;;;;5032454;28;20326;-40
2023/09/19 10:22:57;;;;;;;1.40;0.90;;;21.60;99.90;;;;;;5032527;28;20076;-38
2023/09/19 10:25:33;;;;;;;1.45;0.70;;;21.60;99.90;;;;;;5032104;28;20482;-40
2023/09/19 10:28:03;;;;;;;0.90;0.70;;;21.60;99.90;;;;;;5032813;28;20164;-43
2023/09/19 10:30:31;;;;;;;1.10;0.60;;;21.60;99.90;;;;;;5032496;28;20014;-40
2023/09/19 10:33:03;;;;;;;0.77;0.55;;;21.60;99.90;;;;;;5032237;28;20022;-42
2023/09/19 10:35:29;;;;;;;0.85;0.60;;;21.60;99.90;;;;;;5031999;28;20014;-37
2023/09/19 10:38:02;;;;;;;0.85;0.60;;;21.60;99.90;;;;;;5032318;28;20523;-40
2023/09/19 10:40:31;;;;;;;1.67;0.80;;;21.60;99.90;;;;;;5031985;28;20568;-38
2023/09/19 10:43:07;;;;;;;1.02;0.60;;;21.60;99.90;;;;;;5032242;28;20036;-37
2023/09/19 10:45:35;;;;;;;1.08;0.60;;;21.70;99.90;;;;;;5031832;28;20027;-37
2023/09/19 10:48:02;;;;;;;0.90;0.50;;;21.70;99.90;;;;;;5031906;28;20537;-42
2023/09/19 10:50:31;;;;;;;0.82;0.63;;;21.70;99.90;;;;;;5031953;28;20030;-41
2023/09/19 10:53:04;;;;;;;1.17;0.60;;;21.70;99.90;;;;;;5031906;28;20026;-38
2023/09/19 10:55:31;;;;;;;1.02;0.60;;;21.70;99.90;;;;;;5031746;28;20030;-41
2023/09/19 10:58:00;;;;;;;1.20;0.82;;;21.70;99.90;;;;;;5031749;28;20467;-41
2023/09/19 11:00:26;;;;;;;1.83;0.70;;;21.80;99.90;;;;;;5031856;28;20490;-42
2023/09/19 11:03:22;;;;;;;0.95;0.60;;;21.70;99.90;;;;;;5031919;28;20029;-41
2023/09/19 11:06:09;;;;;;;2.30;0.60;;;21.80;99.90;;;;;;5031576;28;20025;-40
2023/09/19 11:08:56;;;;;;;1.35;0.65;;;21.80;99.90;;;;;;5032037;28;20025;-38
2023/09/19 11:11:42;;;;;;;0.82;0.52;;;21.80;99.90;;;;;;5031859;28;20021;-43
2023/09/19 11:14:20;;;;;;;1.30;0.70;;;21.80;99.90;;;;;;5031599;28;20109;-45
2023/09/19 11:17:17;;;;;;;1.02;0.50;;;21.80;99.90;;;;;;5031753;28;20383;-40
2023/09/19 11:25:33;;;;;;;1.05;0.70;;;21.80;99.90;;;;;;5031234;28;20025;-40
2023/09/19 11:28:21;;;;;;;1.73;0.70;;;21.80;99.90;;;;;;5031666;28;20496;-37
2023/09/19 11:30:50;;;;;;;1.25;0.68;;;21.80;99.90;;;;;;5030750;28;20063;-41
2023/09/19 11:33:25;;;;;;;3.10;0.73;;;21.80;99.90;;;;;;5030125;28;20055;-38
2023/09/19 11:36:04;;;;;;;2.60;0.95;;;21.80;99.90;;;;;;5031445;28;20025;-38
2023/09/19 11:38:42;;;;;;;1.23;0.70;;;21.80;99.90;;;;;;5031991;28;20464;-40
2023/09/19 11:41:52;;;;;;;1.45;0.80;;;21.80;99.90;;;;;;5031282;28;20033;-42
2023/09/19 11:44:17;;;;;;;1.27;0.80;;;21.90;99.90;;;;;;5031097;28;20040;-43
2023/09/19 11:46:54;;;;;;;0.60;0.50;;;21.80;99.90;;;;;;5031736;28;20025;-43
2023/09/19 11:49:29;;;;;;;0.98;0.60;;;21.90;99.90;;;;;;5031337;28;20372;-44
2023/09/19 11:51:56;;;;;;;1.80;0.82;;;21.90;99.90;;;;;;5031190;28;20121;-43
2023/09/19 11:54:22;;;;;;;1.67;0.73;;;21.90;99.90;;;;;;5031389;28;20123;-41
2023/09/19 11:56:53;;;;;;;1.48;0.70;;;21.90;99.90;;;;;;5030990;28;20493;-41
2023/09/19 11:59:29;;;;;;;1.23;0.65;;;21.90;99.90;;;;;;5031110;28;20379;-38
2023/09/19 12:01:59;;;;;;;2.30;0.80;;;21.90;99.90;;;;;;5031137;28;20025;-40
2023/09/19 12:04:39;;;;;;;1.77;0.80;;;21.90;99.90;;;;;;5031013;28;20025;-45
2023/09/19 12:07:10;;;;;;;1.25;0.77;;;21.90;99.90;;;;;;5031063;28;20021;-40
2023/09/19 12:09:40;;;;;;;1.23;0.70;;;21.90;99.90;;;;;;5030934;28;20029;-38
2023/09/19 12:12:06;;;;;;;1.40;0.80;;;21.90;99.90;;;;;;5031202;28;20101;-44
2023/09/19 12:14:33;;;;;;;1.33;0.73;;;21.90;99.90;;;;;;5030991;28;20018;-40
2023/09/19 12:17:01;;;;;;;3.17;0.85;;;21.90;99.90;;;;;;5030931;28;20025;-41
2023/09/19 12:19:27;;;;;;;0.70;0.50;;;21.90;99.90;;;;;;5031007;28;20018;-38
2023/09/19 12:21:57;;;;;;;0.95;0.60;;;21.90;99.90;;;;;;5030789;28;20033;-39
2023/09/19 12:24:26;;;;;;;2.17;0.80;;;21.90;99.90;;;;;;5031146;28;20021;-39
2023/09/19 12:26:52;;;;;;;1.60;0.57;;;21.90;99.90;;;;;;5030837;28;20053;-44
2023/09/19 12:29:21;;;;;;;0.77;0.50;;;21.90;99.90;;;;;;5030806;28;20508;-41
2023/09/19 12:31:57;;;;;;;1.50;0.60;;;22.00;99.90;;;;;;5030738;28;20075;-44
2023/09/19 12:34:35;;;;;;;1.98;0.68;;;21.90;99.90;;;;;;5031099;28;20018;-45
2023/09/19 12:37:12;;;;;;;1.50;0.70;;;21.90;99.90;;;;;;5030941;28;20020;-45
2023/09/19 12:39:48;;;;;;;1.75;0.80;;;21.90;99.90;;;;;;5030647;28;20629;-40
2023/09/19 12:42:15;;;;;;;0.70;0.57;;;21.90;99.90;;;;;;5031353;28;20029;-44
2023/09/19 12:44:43;;;;;;;2.13;0.65;;;22.00;99.90;;;;;;5016424;28;20430;-44
2023/09/19 12:47:15;;;;;;;1.20;0.80;;;22.00;99.90;;;;;;5034347;28;20025;-41
2023/09/19 12:50:06;;;;;;;1.13;0.60;;;22.00;99.90;;;;;;5034201;28;20044;-44
2023/09/19 12:52:48;;;;;;;2.67;0.73;;;22.00;99.90;;;;;;5034097;28;20064;-40
2023/09/19 12:55:24;;;;;;;1.73;0.55;;;22.00;99.90;;;;;;5016294;28;20037;-45
2023/09/19 12:58:11;;;;;;;3.25;0.70;;;22.00;99.90;;;;;;5034224;28;20055;-39
2023/09/19 13:00:44;;;;;;;0.93;0.60;;;22.00;99.90;;;;;;5033973;28;20482;-40
2023/09/19 13:03:32;;;;;;;1.50;0.70;;;22.00;99.90;;;;;;5034016;28;20486;-37
2023/09/19 13:06:00;;;;;;;0.98;0.63;;;22.00;99.90;;;;;;5033782;28;20382;-41
2023/09/19 13:08:34;;;;;;;1.67;0.80;;;22.00;99.90;;;;;;5033952;28;20461;-40